createdAt,value
2023-12-16T00:00:22.136Z,2.98
2023-12-16T00:01:28.839Z,3.45
2023-12-16T00:02:35.536Z,3.19
2023-12-16T00:03:42.221Z,3.00
2023-12-16T00:04:48.895Z,2.85
2023-12-16T00:05:55.564Z,3.17
2023-12-16T00:07:02.253Z,2.67
2023-12-16T00:08:08.882Z,2.97
2023-12-16T00:09:15.497Z,3.32
2023-12-16T00:10:22.250Z,2.96
2023-12-16T00:11:29.253Z,3.23
2023-12-16T00:12:36.240Z,3.11
2023-12-16T00:13:43.162Z,3.07
2023-12-16T00:14:49.790Z,2.98
2023-12-16T00:15:56.439Z,2.74
2023-12-16T00:17:03.138Z,2.88
2023-12-16T00:18:09.814Z,2.86
2023-12-16T00:19:16.545Z,3.47
2023-12-16T00:20:23.607Z,2.87
2023-12-16T00:21:30.221Z,3.04
2023-12-16T00:22:36.837Z,3.24
2023-12-16T00:23:43.471Z,2.95
2023-12-16T00:24:50.116Z,2.95
2023-12-16T00:25:56.830Z,2.95
2023-12-16T00:27:03.441Z,3.17
2023-12-16T00:28:10.131Z,2.89
2023-12-16T00:29:17.226Z,3.22
2023-12-16T00:30:23.875Z,3.06
2023-12-16T00:31:30.511Z,3.04
2023-12-16T00:32:37.148Z,2.97
2023-12-16T00:33:43.817Z,2.97
2023-12-16T00:34:50.448Z,2.91
2023-12-16T00:35:57.085Z,2.95
2023-12-16T00:37:03.762Z,2.79
2023-12-16T00:38:10.380Z,3.43
2023-12-16T00:39:16.998Z,3.08
2023-12-16T00:40:23.835Z,3.09
2023-12-16T00:41:30.527Z,3.05
2023-12-16T00:42:37.138Z,3.08
2023-12-16T00:43:43.756Z,3.26
2023-12-16T00:44:50.390Z,3.51
2023-12-16T00:45:57.040Z,3.11
2023-12-16T00:47:03.668Z,3.09
2023-12-16T00:48:10.409Z,3.01
2023-12-16T00:49:17.157Z,2.85
2023-12-16T00:50:23.825Z,3.61
2023-12-16T00:51:30.458Z,3.14
2023-12-16T00:52:37.067Z,2.80
2023-12-16T00:53:43.681Z,2.79
2023-12-16T00:54:50.304Z,3.02
2023-12-16T00:55:56.921Z,3.80
2023-12-16T00:57:03.534Z,2.79
2023-12-16T00:58:10.234Z,3.21
2023-12-16T00:59:17.155Z,3.00
2023-12-16T01:00:23.790Z,3.22
2023-12-16T01:01:30.492Z,3.54
2023-12-16T01:02:37.134Z,3.07
2023-12-16T01:03:43.803Z,3.03
2023-12-16T01:04:50.426Z,3.30
2023-12-16T01:05:57.058Z,3.19
2023-12-16T01:07:03.841Z,3.13
2023-12-16T01:08:10.502Z,2.96
2023-12-16T01:09:17.137Z,2.72
2023-12-16T01:10:23.830Z,3.10
2023-12-16T01:11:30.435Z,3.28
2023-12-16T01:12:37.059Z,2.93
2023-12-16T01:13:43.682Z,3.46
2023-12-16T01:14:50.299Z,3.28
2023-12-16T01:15:56.933Z,3.38
2023-12-16T01:17:03.519Z,3.16
2023-12-16T01:18:10.216Z,3.87
2023-12-16T01:19:17.179Z,3.04
2023-12-16T01:20:23.769Z,3.73
2023-12-16T01:21:30.384Z,3.48
2023-12-16T01:22:37.012Z,3.18
2023-12-16T01:23:43.668Z,3.29
2023-12-16T01:24:50.362Z,3.11
2023-12-16T01:25:56.978Z,3.55
2023-12-16T01:27:03.581Z,3.29
2023-12-16T01:28:10.219Z,3.03
2023-12-16T01:29:16.833Z,3.22
2023-12-16T01:30:23.442Z,2.87
2023-12-16T01:31:30.126Z,2.99
2023-12-16T01:32:36.722Z,2.80
2023-12-16T01:33:43.373Z,3.26
2023-12-16T01:34:49.993Z,3.67
2023-12-16T01:35:56.622Z,2.96
2023-12-16T01:37:03.292Z,2.93
2023-12-16T01:38:09.878Z,3.14
2023-12-16T01:39:16.521Z,2.91
2023-12-16T01:40:23.209Z,3.26
2023-12-16T01:41:29.848Z,2.83
2023-12-16T01:42:36.478Z,2.84
2023-12-16T01:43:43.083Z,2.78
2023-12-16T01:44:49.737Z,3.15
2023-12-16T01:45:56.402Z,3.17
2023-12-16T01:47:03.098Z,3.07
2023-12-16T01:48:09.847Z,2.90
2023-12-16T01:49:16.574Z,3.01
2023-12-16T01:50:23.268Z,3.60
2023-12-16T01:51:29.863Z,3.57
2023-12-16T01:52:36.500Z,3.83
2023-12-16T01:53:43.124Z,3.64
2023-12-16T01:54:49.769Z,3.50
2023-12-16T01:55:56.372Z,3.29
2023-12-16T01:57:02.982Z,3.60
2023-12-16T01:58:09.639Z,3.49
2023-12-16T01:59:16.241Z,3.46
2023-12-16T02:00:22.870Z,3.24
2023-12-16T02:01:29.574Z,3.84
2023-12-16T02:02:36.216Z,2.94
2023-12-16T02:03:42.960Z,2.98
2023-12-16T02:04:49.660Z,3.29
2023-12-16T02:05:56.293Z,3.58
2023-12-16T02:07:02.971Z,3.34
2023-12-16T02:08:09.630Z,3.34
2023-12-16T02:09:16.265Z,3.34
2023-12-16T02:10:22.906Z,3.25
2023-12-16T02:11:29.526Z,3.46
2023-12-16T02:12:36.127Z,3.33
2023-12-16T02:13:42.751Z,3.62
2023-12-16T02:14:49.388Z,3.54
2023-12-16T02:15:56.018Z,3.45
2023-12-16T02:17:02.660Z,3.46
2023-12-16T02:18:09.336Z,3.82
2023-12-16T02:19:16.074Z,3.62
2023-12-16T02:20:22.723Z,3.47
2023-12-16T02:21:29.338Z,3.30
2023-12-16T02:22:35.967Z,3.45
2023-12-16T02:23:42.615Z,3.34
2023-12-16T02:24:49.234Z,3.17
2023-12-16T02:25:55.835Z,3.41
2023-12-16T02:27:02.455Z,3.85
2023-12-16T02:28:09.119Z,3.42
2023-12-16T02:29:18.317Z,3.41
2023-12-16T02:30:25.421Z,4.22
2023-12-16T02:31:32.048Z,3.84
2023-12-16T02:32:38.715Z,3.58
2023-12-16T02:33:45.463Z,3.75
2023-12-16T02:34:52.080Z,3.57
2023-12-16T02:35:58.692Z,3.76
2023-12-16T02:37:05.374Z,3.71
2023-12-16T02:38:11.958Z,3.58
2023-12-16T02:39:18.670Z,3.53
2023-12-16T02:40:25.337Z,3.34
2023-12-16T02:41:31.933Z,3.68
2023-12-16T02:42:38.560Z,4.22
2023-12-16T02:43:45.156Z,3.82
2023-12-16T02:44:51.790Z,3.93
2023-12-16T02:45:58.429Z,3.91
2023-12-16T02:47:05.046Z,4.29
2023-12-16T02:48:11.809Z,3.88
2023-12-16T02:49:18.505Z,3.65
2023-12-16T02:50:25.196Z,3.50
2023-12-16T02:51:31.792Z,3.59
2023-12-16T02:52:38.426Z,3.89
2023-12-16T02:53:45.047Z,4.26
2023-12-16T02:54:51.712Z,3.73
2023-12-16T02:55:58.338Z,3.78
2023-12-16T02:57:04.927Z,4.06
2023-12-16T02:58:11.564Z,3.76
2023-12-16T02:59:18.203Z,3.56
2023-12-16T03:00:24.829Z,4.08
2023-12-16T03:01:31.533Z,3.81
2023-12-16T03:02:38.220Z,3.79
2023-12-16T03:03:44.868Z,3.84
2023-12-16T03:04:51.500Z,3.65
2023-12-16T03:05:58.095Z,4.02
2023-12-16T03:07:04.772Z,4.60
2023-12-16T03:08:11.364Z,3.76
2023-12-16T03:09:17.984Z,3.65
2023-12-16T03:10:24.720Z,4.25
2023-12-16T03:11:31.301Z,3.88
2023-12-16T03:12:37.935Z,3.91
2023-12-16T03:13:44.566Z,3.97
2023-12-16T03:14:51.169Z,3.87
2023-12-16T03:15:57.841Z,3.53
2023-12-16T03:17:04.455Z,4.98
2023-12-16T03:18:11.097Z,3.55
2023-12-16T03:19:17.774Z,3.91
2023-12-16T03:20:24.433Z,4.27
2023-12-16T03:21:31.049Z,3.33
2023-12-16T03:22:37.686Z,3.95
2023-12-16T03:23:44.308Z,3.57
2023-12-16T03:24:50.958Z,4.34
2023-12-16T03:25:57.560Z,4.39
2023-12-16T03:27:04.182Z,3.69
2023-12-16T03:28:10.808Z,4.16
2023-12-16T03:29:17.426Z,3.95
2023-12-16T03:30:24.108Z,3.91
2023-12-16T03:31:30.804Z,4.22
2023-12-16T03:32:37.537Z,4.36
2023-12-16T03:33:44.392Z,3.75
2023-12-16T03:34:51.166Z,4.04
2023-12-16T03:35:57.784Z,4.17
2023-12-16T03:37:04.451Z,4.02
2023-12-16T03:38:11.030Z,3.93
2023-12-16T03:39:17.674Z,4.10
2023-12-16T03:40:24.448Z,4.02
2023-12-16T03:41:31.060Z,4.40
2023-12-16T03:42:37.678Z,3.86
2023-12-16T03:43:44.284Z,3.89
2023-12-16T03:44:50.911Z,3.98
2023-12-16T03:45:57.542Z,4.09
2023-12-16T03:47:04.141Z,4.75
2023-12-16T03:48:10.852Z,3.81
2023-12-16T03:49:17.508Z,4.15
2023-12-16T03:50:24.106Z,4.05
2023-12-16T03:51:30.745Z,4.27
2023-12-16T03:52:37.337Z,3.71
2023-12-16T03:53:44.035Z,3.95
2023-12-16T03:54:50.660Z,4.06
2023-12-16T03:55:57.288Z,4.24
2023-12-16T03:57:03.916Z,4.16
2023-12-16T03:58:10.578Z,3.71
2023-12-16T03:59:17.179Z,4.27
2023-12-16T04:00:23.783Z,4.43
2023-12-16T04:01:30.468Z,4.03
2023-12-16T04:02:37.152Z,3.64
2023-12-16T04:03:43.755Z,4.49
2023-12-16T04:04:50.364Z,4.54
2023-12-16T04:05:57.003Z,4.04
2023-12-16T04:07:03.641Z,3.98
2023-12-16T04:08:10.259Z,4.44
2023-12-16T04:09:16.877Z,4.06
2023-12-16T04:10:23.518Z,4.01
2023-12-16T04:11:30.106Z,4.09
2023-12-16T04:12:36.722Z,3.81
2023-12-16T04:13:43.344Z,4.45
2023-12-16T04:14:49.956Z,3.95
2023-12-16T04:15:56.610Z,4.22
2023-12-16T04:17:03.193Z,4.01
2023-12-16T04:18:10.036Z,3.94
2023-12-16T04:19:16.775Z,4.14
2023-12-16T04:20:23.403Z,3.98
2023-12-16T04:21:30.036Z,4.39
2023-12-16T04:22:36.642Z,4.55
2023-12-16T04:23:43.251Z,4.63
2023-12-16T04:24:49.937Z,4.20
2023-12-16T04:25:56.562Z,4.47
2023-12-16T04:27:03.174Z,4.09
2023-12-16T04:28:09.828Z,3.89
2023-12-16T04:29:16.413Z,4.05
2023-12-16T04:30:23.043Z,4.60
2023-12-16T04:31:29.694Z,4.66
2023-12-16T04:32:36.314Z,4.71
2023-12-16T04:33:42.963Z,3.83
2023-12-16T04:34:49.814Z,3.88
2023-12-16T04:35:56.444Z,4.25
2023-12-16T04:37:03.150Z,4.73
2023-12-16T04:38:09.783Z,4.23
2023-12-16T04:39:16.393Z,4.19
2023-12-16T04:40:23.042Z,4.50
2023-12-16T04:41:29.656Z,4.07
2023-12-16T04:42:36.259Z,4.12
2023-12-16T04:43:42.884Z,4.30
2023-12-16T04:44:49.497Z,3.98
2023-12-16T04:45:56.123Z,4.04
2023-12-16T04:47:02.745Z,4.29
2023-12-16T04:48:09.448Z,4.37
2023-12-16T04:49:16.235Z,4.39
2023-12-16T04:50:22.934Z,4.34
2023-12-16T04:51:29.531Z,4.03
2023-12-16T04:52:36.165Z,4.29
2023-12-16T04:53:42.778Z,4.08
2023-12-16T04:54:49.420Z,4.30
2023-12-16T04:55:56.035Z,4.19
2023-12-16T04:57:02.639Z,4.31
2023-12-16T04:58:09.314Z,4.14
2023-12-16T04:59:15.918Z,4.05
2023-12-16T05:00:22.545Z,4.02
2023-12-16T05:01:29.307Z,4.24
2023-12-16T05:02:35.943Z,4.53
2023-12-16T05:03:42.591Z,4.14
2023-12-16T05:04:49.329Z,4.11
2023-12-16T05:05:55.952Z,4.03
2023-12-16T05:07:02.603Z,4.57
2023-12-16T05:08:09.276Z,4.36
2023-12-16T05:09:15.873Z,4.34
2023-12-16T05:10:22.514Z,3.99
2023-12-16T05:11:29.148Z,4.02
2023-12-16T05:12:36.606Z,4.44
2023-12-16T05:13:43.261Z,4.38
2023-12-16T05:14:49.893Z,4.50
2023-12-16T05:15:56.524Z,4.81
2023-12-16T05:17:03.132Z,4.76
2023-12-16T05:18:09.907Z,4.36
2023-12-16T05:19:16.650Z,4.61
2023-12-16T05:20:23.266Z,4.26
2023-12-16T05:21:29.877Z,4.20
2023-12-16T05:22:36.495Z,4.39
2023-12-16T05:23:43.110Z,4.45
2023-12-16T05:24:49.758Z,4.07
2023-12-16T05:25:56.350Z,4.73
2023-12-16T05:27:02.978Z,4.24
2023-12-16T05:28:09.706Z,4.69
2023-12-16T05:29:16.338Z,4.25
2023-12-16T05:30:23.075Z,4.95
2023-12-16T05:31:29.721Z,4.29
2023-12-16T05:32:36.413Z,4.39
2023-12-16T05:33:43.067Z,4.27
2023-12-16T05:34:49.697Z,4.67
2023-12-16T05:35:56.431Z,4.66
2023-12-16T05:37:03.107Z,4.23
2023-12-16T05:38:09.710Z,4.61
2023-12-16T05:39:16.327Z,4.33
2023-12-16T05:40:23.003Z,4.06
2023-12-16T05:41:29.618Z,3.99
2023-12-16T05:42:36.330Z,4.16
2023-12-16T05:43:42.976Z,4.32
2023-12-16T05:44:49.574Z,4.13
2023-12-16T05:45:56.211Z,4.12
2023-12-16T05:47:02.816Z,4.36
2023-12-16T05:48:09.561Z,4.40
2023-12-16T05:49:16.227Z,4.35
2023-12-16T05:50:22.894Z,3.51
2023-12-16T05:51:29.518Z,4.14
2023-12-16T05:52:36.208Z,4.24
2023-12-16T05:53:42.792Z,4.51
2023-12-16T05:54:49.425Z,4.05
2023-12-16T05:55:56.040Z,4.10
2023-12-16T05:57:02.663Z,3.81
2023-12-16T05:58:09.318Z,4.62
2023-12-16T05:59:15.910Z,4.34
2023-12-16T06:00:22.520Z,4.39
2023-12-16T06:01:29.246Z,4.14
2023-12-16T06:02:35.962Z,4.46
2023-12-16T06:03:42.564Z,4.43
2023-12-16T06:04:49.206Z,4.52
2023-12-16T06:05:55.920Z,4.44
2023-12-16T06:07:02.593Z,3.69
2023-12-16T06:08:09.178Z,4.31
2023-12-16T06:09:15.789Z,4.19
2023-12-16T06:10:22.447Z,4.56
2023-12-16T06:11:29.040Z,4.09
2023-12-16T06:12:35.676Z,3.88
2023-12-16T06:13:42.346Z,4.32
2023-12-16T06:14:48.979Z,4.12
2023-12-16T06:16:07.642Z,4.27
2023-12-16T06:17:07.172Z,4.17
2023-12-16T06:18:14.018Z,3.91
2023-12-16T06:19:22.115Z,4.12
2023-12-16T06:20:29.819Z,4.22
2023-12-16T06:21:36.429Z,4.01
2023-12-16T06:22:43.051Z,4.16
2023-12-16T06:23:49.674Z,3.90
2023-12-16T06:24:56.298Z,4.22
2023-12-16T06:26:02.901Z,4.98
2023-12-16T06:27:09.527Z,4.08
2023-12-16T06:28:16.175Z,4.50
2023-12-16T06:29:22.774Z,4.02
2023-12-16T06:30:29.410Z,4.14
2023-12-16T06:31:36.039Z,4.08
2023-12-16T06:32:42.690Z,4.13
2023-12-16T06:33:49.587Z,4.36
2023-12-16T06:34:56.299Z,4.42
2023-12-16T06:36:02.900Z,4.14
2023-12-16T06:37:09.542Z,4.41
2023-12-16T06:38:16.165Z,4.54
2023-12-16T06:39:22.789Z,4.14
2023-12-16T06:40:29.452Z,4.17
2023-12-16T06:41:36.038Z,4.32
2023-12-16T06:42:42.660Z,4.19
2023-12-16T06:43:49.277Z,4.33
2023-12-16T06:44:55.911Z,4.39
2023-12-16T06:46:02.558Z,3.75
2023-12-16T06:47:09.136Z,3.83
2023-12-16T06:48:15.908Z,4.03
2023-12-16T06:49:22.577Z,4.31
2023-12-16T06:50:29.256Z,4.52
2023-12-16T06:51:35.886Z,4.21
2023-12-16T06:52:42.501Z,4.18
2023-12-16T06:53:49.124Z,4.54
2023-12-16T06:54:55.756Z,4.09
2023-12-16T06:56:02.361Z,3.93
2023-12-16T06:57:09.009Z,3.80
2023-12-16T06:58:15.648Z,4.35
2023-12-16T06:59:22.278Z,4.24
2023-12-16T07:00:28.971Z,4.25
2023-12-16T07:01:35.652Z,4.05
2023-12-16T07:02:42.343Z,4.00
2023-12-16T07:03:49.058Z,4.16
2023-12-16T07:04:55.707Z,4.37
2023-12-16T07:06:02.478Z,4.72
2023-12-16T07:07:09.241Z,3.91
2023-12-16T07:08:15.860Z,4.11
2023-12-16T07:09:22.454Z,4.42
2023-12-16T07:10:29.122Z,3.94
2023-12-16T07:11:35.717Z,4.20
2023-12-16T07:12:42.356Z,4.30
2023-12-16T07:13:48.956Z,4.18
2023-12-16T07:14:55.571Z,4.07
2023-12-16T07:16:02.233Z,4.30
2023-12-16T07:17:08.832Z,3.93
2023-12-16T07:18:15.488Z,4.24
2023-12-16T07:19:22.242Z,3.96
2023-12-16T07:20:28.850Z,4.05
2023-12-16T07:21:35.477Z,4.32
2023-12-16T07:22:42.084Z,4.42
2023-12-16T07:23:48.714Z,4.14
2023-12-16T07:24:55.373Z,4.52
2023-12-16T07:26:01.957Z,4.39
2023-12-16T07:27:08.658Z,4.04
2023-12-16T07:28:15.345Z,4.11
2023-12-16T07:29:22.083Z,4.71
2023-12-16T07:30:28.725Z,4.66
2023-12-16T07:31:35.367Z,4.26
2023-12-16T07:32:42.194Z,4.50
2023-12-16T07:33:49.057Z,4.28
2023-12-16T07:34:55.771Z,4.59
2023-12-16T07:36:02.369Z,3.98
2023-12-16T07:37:09.017Z,4.08
2023-12-16T07:38:15.618Z,4.26
2023-12-16T07:39:22.280Z,4.02
2023-12-16T07:40:28.906Z,4.01
2023-12-16T07:41:35.567Z,4.19
2023-12-16T07:42:42.205Z,4.02
2023-12-16T07:43:48.824Z,4.27
2023-12-16T07:44:55.421Z,4.04
2023-12-16T07:46:02.113Z,4.23
2023-12-16T07:47:08.709Z,4.39
2023-12-16T07:48:15.560Z,4.65
2023-12-16T07:49:22.255Z,4.10
2023-12-16T07:50:28.890Z,4.27
2023-12-16T07:51:35.513Z,3.96
2023-12-16T07:52:42.139Z,4.25
2023-12-16T07:53:48.825Z,4.11
2023-12-16T07:54:55.500Z,4.23
2023-12-16T07:56:02.079Z,4.12
2023-12-16T07:57:08.703Z,4.39
2023-12-16T07:58:15.446Z,4.33
2023-12-16T07:59:22.065Z,4.50
2023-12-16T08:00:28.808Z,4.54
2023-12-16T08:01:35.573Z,4.85
2023-12-16T08:02:42.200Z,4.35
2023-12-16T08:03:49.036Z,3.84
2023-12-16T08:04:55.814Z,4.35
2023-12-16T08:06:02.460Z,4.23
2023-12-16T08:07:09.088Z,4.47
2023-12-16T08:08:15.702Z,4.45
2023-12-16T08:09:22.322Z,4.49
2023-12-16T08:10:29.006Z,4.96
2023-12-16T08:11:35.654Z,4.35
2023-12-16T08:12:42.264Z,3.97
2023-12-16T08:13:48.901Z,4.16
2023-12-16T08:14:55.523Z,4.59
2023-12-16T08:16:02.197Z,4.39
2023-12-16T08:17:08.869Z,4.42
2023-12-16T08:18:17.190Z,4.23
2023-12-16T08:19:26.207Z,4.08
2023-12-16T08:20:32.866Z,4.59
2023-12-16T08:21:39.470Z,4.46
2023-12-16T08:22:46.091Z,4.40
2023-12-16T08:23:52.734Z,4.55
2023-12-16T08:24:59.356Z,4.36
2023-12-16T08:26:05.948Z,4.74
2023-12-16T08:27:12.549Z,4.47
2023-12-16T08:28:19.290Z,4.42
2023-12-16T08:29:25.907Z,4.17
2023-12-16T08:30:32.588Z,4.22
2023-12-16T08:31:39.216Z,4.57
2023-12-16T08:32:45.879Z,4.15
2023-12-16T08:33:52.557Z,4.24
2023-12-16T08:34:59.273Z,4.21
2023-12-16T08:36:05.943Z,4.52
2023-12-16T08:37:12.575Z,4.49
2023-12-16T08:38:19.171Z,4.42
2023-12-16T08:39:25.802Z,4.53
2023-12-16T08:40:32.444Z,4.46
2023-12-16T08:41:39.119Z,5.01
2023-12-16T08:42:45.776Z,4.66
2023-12-16T08:43:52.359Z,4.64
2023-12-16T08:44:59.027Z,4.48
2023-12-16T08:46:05.645Z,4.54
2023-12-16T08:47:12.267Z,4.60
2023-12-16T08:48:18.953Z,4.28
2023-12-16T08:49:25.615Z,4.66
2023-12-16T08:50:32.208Z,4.38
2023-12-16T08:51:38.814Z,4.56
2023-12-16T08:52:45.526Z,4.51
2023-12-16T08:53:52.125Z,4.00
2023-12-16T08:54:58.869Z,4.44
2023-12-16T08:56:05.516Z,4.25
2023-12-16T08:57:12.132Z,4.35
2023-12-16T08:58:18.780Z,4.65
2023-12-16T08:59:25.363Z,4.33
2023-12-16T09:00:32.081Z,4.59
2023-12-16T09:01:38.745Z,4.40
2023-12-16T09:02:45.352Z,4.51
2023-12-16T09:03:52.146Z,4.31
2023-12-16T09:04:58.807Z,4.38
2023-12-16T09:06:05.557Z,4.46
2023-12-16T09:07:12.152Z,4.76
2023-12-16T09:08:18.751Z,4.23
2023-12-16T09:09:25.378Z,4.55
2023-12-16T09:10:32.023Z,4.61
2023-12-16T09:11:38.624Z,4.28
2023-12-16T09:12:45.256Z,4.36
2023-12-16T09:13:51.869Z,4.23
2023-12-16T09:14:58.500Z,4.38
2023-12-16T09:16:05.144Z,4.59
2023-12-16T09:17:11.774Z,4.73
2023-12-16T09:18:18.491Z,4.10
2023-12-16T09:19:25.287Z,4.58
2023-12-16T09:20:31.957Z,4.47
2023-12-16T09:21:38.564Z,4.53
2023-12-16T09:22:45.199Z,4.62
2023-12-16T09:23:51.826Z,4.35
2023-12-16T09:24:58.454Z,4.52
2023-12-16T09:26:05.096Z,4.35
2023-12-16T09:27:11.696Z,4.21
2023-12-16T09:28:18.419Z,4.36
2023-12-16T09:29:27.723Z,4.82
2023-12-16T09:30:35.244Z,4.15
2023-12-16T09:31:41.872Z,4.31
2023-12-16T09:32:48.516Z,4.37
2023-12-16T09:33:55.418Z,4.56
2023-12-16T09:35:02.100Z,4.72
2023-12-16T09:36:10.827Z,4.60
2023-12-16T09:37:18.784Z,4.13
2023-12-16T09:38:25.429Z,4.53
2023-12-16T09:39:32.087Z,4.54
2023-12-16T09:40:38.725Z,5.09
2023-12-16T09:41:45.400Z,5.12
2023-12-16T09:42:52.068Z,4.64
2023-12-16T09:43:58.680Z,4.74
2023-12-16T09:45:05.307Z,4.38
2023-12-16T09:46:11.960Z,4.66
2023-12-16T09:47:18.558Z,4.81
2023-12-16T09:48:25.267Z,4.46
2023-12-16T09:49:31.997Z,4.55
2023-12-16T09:50:38.743Z,4.34
2023-12-16T09:51:45.329Z,4.90
2023-12-16T09:52:51.924Z,4.27
2023-12-16T09:53:58.549Z,4.65
2023-12-16T09:55:05.205Z,4.86
2023-12-16T09:56:11.812Z,5.05
2023-12-16T09:57:18.417Z,4.85
2023-12-16T09:58:25.083Z,5.19
2023-12-16T09:59:31.729Z,4.70
2023-12-16T10:00:38.356Z,4.74
2023-12-16T10:01:45.048Z,4.73
2023-12-16T10:02:51.784Z,4.75
2023-12-16T10:03:58.434Z,4.92
2023-12-16T10:05:05.119Z,4.75
2023-12-16T10:06:11.732Z,4.62
2023-12-16T10:07:18.840Z,4.83
2023-12-16T10:08:25.465Z,4.33
2023-12-16T10:09:32.068Z,4.48
2023-12-16T10:10:38.737Z,4.35
2023-12-16T10:11:45.320Z,4.24
2023-12-16T10:12:52.000Z,4.70
2023-12-16T10:13:58.616Z,4.45
2023-12-16T10:15:05.218Z,4.48
2023-12-16T10:16:11.921Z,4.55
2023-12-16T10:17:18.553Z,4.41
2023-12-16T10:18:25.294Z,4.78
2023-12-16T10:19:32.001Z,4.56
2023-12-16T10:20:38.636Z,4.74
2023-12-16T10:21:45.272Z,4.27
2023-12-16T10:22:51.880Z,4.90
2023-12-16T10:23:58.506Z,4.44
2023-12-16T10:25:05.139Z,4.66
2023-12-16T10:26:11.739Z,4.73
2023-12-16T10:27:18.360Z,4.36
2023-12-16T10:28:24.987Z,4.33
2023-12-16T10:29:31.595Z,4.51
2023-12-16T10:30:38.236Z,4.63
2023-12-16T10:31:44.905Z,4.21
2023-12-16T10:32:51.634Z,4.70
2023-12-16T10:33:58.242Z,4.82
2023-12-16T10:35:04.886Z,4.28
2023-12-16T10:36:11.511Z,4.25
2023-12-16T10:37:18.203Z,4.72
2023-12-16T10:38:24.797Z,4.63
2023-12-16T10:39:31.406Z,4.70
2023-12-16T10:40:38.207Z,4.59
2023-12-16T10:41:44.844Z,4.63
2023-12-16T10:42:51.497Z,4.67
2023-12-16T10:43:58.205Z,4.30
2023-12-16T10:45:04.794Z,4.55
2023-12-16T10:46:11.490Z,4.79
2023-12-16T10:47:18.070Z,4.35
2023-12-16T10:48:24.787Z,4.28
2023-12-16T10:49:31.544Z,4.88
2023-12-16T10:50:38.319Z,4.68
2023-12-16T10:51:46.218Z,4.41
2023-12-16T10:52:52.826Z,4.75
2023-12-16T10:53:59.453Z,4.38
2023-12-16T10:55:06.174Z,4.52
2023-12-16T10:56:12.853Z,4.20
2023-12-16T10:57:19.520Z,4.43
2023-12-16T10:58:26.166Z,4.54
2023-12-16T10:59:32.781Z,4.92
2023-12-16T11:00:39.450Z,4.22
2023-12-16T11:01:46.180Z,4.49
2023-12-16T11:02:52.897Z,4.68
2023-12-16T11:03:59.533Z,4.14
2023-12-16T11:05:06.166Z,4.62
2023-12-16T11:06:13.169Z,4.45
2023-12-16T11:07:19.875Z,4.68
2023-12-16T11:08:28.276Z,4.50
2023-12-16T11:09:35.002Z,4.75
2023-12-16T11:10:41.691Z,4.80
2023-12-16T11:11:48.336Z,4.36
2023-12-16T11:12:54.959Z,4.57
2023-12-16T11:14:01.664Z,4.44
2023-12-16T11:15:08.338Z,4.93
2023-12-16T11:16:15.031Z,4.63
2023-12-16T11:17:21.732Z,4.50
2023-12-16T11:18:28.397Z,4.87
2023-12-16T11:19:35.048Z,4.46
2023-12-16T11:20:41.676Z,5.06
2023-12-16T11:21:48.299Z,4.83
2023-12-16T11:22:54.909Z,4.47
2023-12-16T11:24:01.584Z,4.78
2023-12-16T11:25:08.227Z,4.68
2023-12-16T11:26:14.932Z,4.43
2023-12-16T11:27:21.612Z,5.30
2023-12-16T11:28:28.250Z,4.87
2023-12-16T11:29:34.847Z,4.83
2023-12-16T11:30:41.480Z,5.25
2023-12-16T11:31:48.174Z,5.48
2023-12-16T11:32:54.998Z,5.00
2023-12-16T11:34:01.803Z,5.20
2023-12-16T11:35:08.458Z,4.73
2023-12-16T11:36:15.080Z,5.00
2023-12-16T11:37:21.704Z,4.73
2023-12-16T11:38:28.301Z,7.55
2023-12-16T11:39:34.917Z,5.21
2023-12-16T11:40:41.533Z,5.64
2023-12-16T11:41:48.127Z,4.97
2023-12-16T11:42:54.780Z,5.67
2023-12-16T11:44:01.426Z,5.40
2023-12-16T11:45:08.053Z,5.08
2023-12-16T11:46:14.672Z,13.20
2023-12-16T11:47:21.347Z,11.56
2023-12-16T11:48:27.995Z,11.32
2023-12-16T11:49:34.657Z,10.53
2023-12-16T11:50:41.266Z,9.40
2023-12-16T11:51:47.906Z,8.84
2023-12-16T11:52:54.526Z,8.72
2023-12-16T11:54:01.147Z,8.09
2023-12-16T11:55:07.805Z,8.77
2023-12-16T11:56:14.458Z,8.20
2023-12-16T11:57:23.211Z,7.75
2023-12-16T11:58:30.686Z,6.90
2023-12-16T11:59:37.277Z,6.88
2023-12-16T12:00:44.950Z,6.96
2023-12-16T12:01:51.644Z,7.15
2023-12-16T12:02:58.215Z,6.49
2023-12-16T12:04:05.091Z,7.01
2023-12-16T12:05:11.914Z,7.16
2023-12-16T12:06:18.660Z,6.83
2023-12-16T12:07:25.301Z,7.25
2023-12-16T12:08:31.892Z,7.34
2023-12-16T12:09:38.515Z,6.58
2023-12-16T12:10:45.169Z,7.00
2023-12-16T12:11:51.780Z,7.79
2023-12-16T12:12:58.426Z,6.38
2023-12-16T12:14:05.006Z,5.84
2023-12-16T12:15:11.635Z,5.55
2023-12-16T12:16:18.292Z,6.52
2023-12-16T12:17:24.970Z,5.65
2023-12-16T12:18:31.676Z,7.13
2023-12-16T12:19:38.316Z,5.85
2023-12-16T12:20:45.016Z,6.32
2023-12-16T12:21:51.644Z,5.75
2023-12-16T12:22:58.340Z,5.75
2023-12-16T12:24:05.004Z,5.64
2023-12-16T12:25:11.708Z,6.10
2023-12-16T12:26:18.362Z,6.10
2023-12-16T12:27:24.996Z,5.88
2023-12-16T12:28:31.613Z,6.08
2023-12-16T12:29:38.285Z,6.49
2023-12-16T12:30:44.927Z,6.30
2023-12-16T12:31:51.522Z,6.17
2023-12-16T12:32:58.209Z,6.66
2023-12-16T12:34:04.971Z,6.06
2023-12-16T12:35:11.714Z,5.99
2023-12-16T12:36:18.380Z,5.71
2023-12-16T12:37:25.053Z,5.53
2023-12-16T12:38:31.694Z,6.27
2023-12-16T12:39:38.306Z,5.81
2023-12-16T12:40:44.918Z,5.25
2023-12-16T12:41:51.576Z,6.23
2023-12-16T12:42:58.212Z,6.56
2023-12-16T12:44:04.809Z,6.09
2023-12-16T12:45:11.471Z,5.32
2023-12-16T12:46:18.257Z,5.81
2023-12-16T12:47:24.897Z,5.48
2023-12-16T12:48:31.731Z,5.79
2023-12-16T12:49:38.437Z,6.13
2023-12-16T12:50:45.119Z,5.97
2023-12-16T12:51:51.752Z,5.61
2023-12-16T12:53:19.799Z,5.53
2023-12-16T12:54:09.896Z,5.00
2023-12-16T12:55:16.551Z,4.92
2023-12-16T12:56:23.159Z,5.59
2023-12-16T12:57:29.777Z,5.84
2023-12-16T12:58:36.425Z,5.20
2023-12-16T12:59:59.767Z,5.44
2023-12-16T13:00:54.671Z,5.42
2023-12-16T13:02:01.296Z,5.63
2023-12-16T13:03:08.020Z,5.83
2023-12-16T13:04:14.774Z,5.47
2023-12-16T13:05:21.423Z,5.22
2023-12-16T13:06:28.090Z,5.11
2023-12-16T13:07:34.679Z,6.16
2023-12-16T13:08:41.317Z,5.07
2023-12-16T13:09:47.947Z,6.32
2023-12-16T13:10:54.562Z,5.15
2023-12-16T13:12:01.223Z,5.67
2023-12-16T13:13:07.862Z,4.79
2023-12-16T13:14:17.926Z,6.17
2023-12-16T13:15:26.056Z,4.97
2023-12-16T13:16:37.611Z,5.34
2023-12-16T13:17:44.534Z,5.16
2023-12-16T13:18:51.514Z,4.65
2023-12-16T13:19:58.234Z,4.73
2023-12-16T13:21:04.940Z,4.78
2023-12-16T13:22:11.544Z,5.31
2023-12-16T13:23:18.194Z,5.32
2023-12-16T13:24:24.838Z,5.44
2023-12-16T13:25:31.436Z,4.74
2023-12-16T13:26:38.099Z,4.93
2023-12-16T13:27:44.680Z,5.69
2023-12-16T13:28:51.496Z,5.23
2023-12-16T13:29:58.155Z,4.65
2023-12-16T13:31:06.650Z,5.32
2023-12-16T13:32:14.857Z,4.96
2023-12-16T13:33:22.218Z,4.96
2023-12-16T13:34:29.200Z,4.60
2023-12-16T13:35:35.851Z,4.72
2023-12-16T13:36:50.254Z,4.35
2023-12-16T13:37:53.999Z,5.22
2023-12-16T13:39:00.681Z,4.72
2023-12-16T13:40:07.322Z,5.09
2023-12-16T13:41:13.971Z,4.62
2023-12-16T13:42:20.814Z,4.85
2023-12-16T13:43:27.437Z,4.71
2023-12-16T13:44:34.066Z,5.24
2023-12-16T13:45:40.700Z,4.42
2023-12-16T13:46:47.307Z,5.63
2023-12-16T13:47:53.982Z,4.74
2023-12-16T13:49:03.187Z,5.26
2023-12-16T13:50:10.789Z,4.87
2023-12-16T13:51:17.423Z,4.62
2023-12-16T13:52:24.013Z,5.02
2023-12-16T13:53:30.673Z,4.96
2023-12-16T13:54:37.286Z,4.61
2023-12-16T13:55:43.910Z,4.58
2023-12-16T13:56:50.592Z,4.65
2023-12-16T13:57:57.260Z,4.63
2023-12-16T13:59:03.885Z,4.83
2023-12-16T14:00:10.536Z,4.62
2023-12-16T14:01:18.439Z,4.35
2023-12-16T14:02:25.769Z,4.65
2023-12-16T14:03:32.454Z,5.03
2023-12-16T14:04:39.160Z,4.14
2023-12-16T14:05:45.858Z,4.78
2023-12-16T14:06:52.501Z,4.32
2023-12-16T14:07:59.123Z,4.77
2023-12-16T14:09:05.762Z,4.74
2023-12-16T14:10:12.368Z,4.58
2023-12-16T14:11:18.973Z,4.42
2023-12-16T14:12:25.617Z,4.70
2023-12-16T14:13:32.239Z,4.15
2023-12-16T14:14:38.881Z,5.04
2023-12-16T14:15:45.493Z,4.52
2023-12-16T14:16:52.110Z,4.65
2023-12-16T14:17:58.801Z,4.29
2023-12-16T14:19:05.516Z,4.30
2023-12-16T14:20:12.164Z,4.23
2023-12-16T14:21:18.779Z,4.38
2023-12-16T14:22:25.381Z,4.74
2023-12-16T14:23:32.040Z,4.68
2023-12-16T14:24:38.649Z,4.77
2023-12-16T14:25:45.256Z,4.15
2023-12-16T14:26:51.871Z,4.44
2023-12-16T14:27:58.488Z,4.57
2023-12-16T14:29:05.132Z,4.62
2023-12-16T14:30:11.829Z,4.55
2023-12-16T14:31:18.425Z,4.83
2023-12-16T14:32:25.117Z,4.43
2023-12-16T14:33:31.858Z,4.49
2023-12-16T14:34:38.967Z,4.33
2023-12-16T14:35:45.703Z,4.51
2023-12-16T14:36:52.320Z,4.38
2023-12-16T14:37:58.925Z,4.29
2023-12-16T14:39:05.615Z,4.03
2023-12-16T14:40:12.249Z,4.10
2023-12-16T14:41:18.879Z,3.73
2023-12-16T14:42:25.525Z,4.30
2023-12-16T14:43:32.117Z,4.49
2023-12-16T14:44:38.754Z,4.21
2023-12-16T14:45:45.350Z,4.30
2023-12-16T14:46:51.983Z,4.48
2023-12-16T14:47:58.684Z,4.30